UAL3886 KLCQ-KMCO
Flight info
| Callsign | UAL3886 |
|---|---|
| Flight time | 0h 29m |
| Altitude | 17000 |
| Route | COAXE GRNCH5 |
| Aircraft | A320/M-VGDW/C |
Departure
| Time | 2026-05-04 23:06 |
|---|---|
| Airport | Lake City Gateway Airport (KLCQ) |
Arrival
| Time | 2026-05-04 23:35 |
|---|---|
| Airport | Orlando International Airport (KMCO) |
| Time | Latitude | Longitude | Altitude | Speed | Heading |
|---|---|---|---|---|---|
| 2026-05-04 22:51 | 30.18661 | -82.58127 | 198 ft | 0 kts | 184° |
| 2026-05-04 23:02 | 30.18634 | -82.58133 | 209 ft | 8 kts | 200° |
| 2026-05-04 23:02 | 30.18574 | -82.58187 | 195 ft | 14 kts | 222° |
| 2026-05-04 23:03 | 30.18488 | -82.58281 | 189 ft | 21 kts | 223° |
| 2026-05-04 23:03 | 30.18450 | -82.58387 | 185 ft | 16 kts | 277° |
| 2026-05-04 23:03 | 30.18466 | -82.58531 | 186 ft | 20 kts | 277° |
| 2026-05-04 23:03 | 30.18484 | -82.58693 | 187 ft | 19 kts | 276° |
| 2026-05-04 23:04 | 30.18499 | -82.58842 | 189 ft | 17 kts | 276° |
| 2026-05-04 23:04 | 30.18509 | -82.58942 | 193 ft | 8 kts | 278° |
| 2026-05-04 23:04 | 30.18502 | -82.58986 | 191 ft | 2 kts | 227° |
| 2026-05-04 23:04 | 30.18479 | -82.58997 | 197 ft | 7 kts | 189° |
| 2026-05-04 23:05 | 30.18415 | -82.58987 | 192 ft | 12 kts | 140° |
| 2026-05-04 23:05 | 30.18390 | -82.58860 | 186 ft | 36 kts | 97° |
| 2026-05-04 23:05 | 30.18320 | -82.58207 | 187 ft | 122 kts | 97° |
| 2026-05-04 23:05 | 30.18197 | -82.57039 | 556 ft | 153 kts | 98° |
| 2026-05-04 23:06 | 30.18099 | -82.55791 | 1475 ft | 158 kts | 95° |
| 2026-05-04 23:06 | 30.18042 | -82.54499 | 2261 ft | 169 kts | 94° |
| 2026-05-04 23:06 | 30.17685 | -82.53131 | 2814 ft | 193 kts | 126° |
| 2026-05-04 23:06 | 30.16561 | -82.52131 | 3348 ft | 219 kts | 149° |
| 2026-05-04 23:07 | 30.15143 | -82.51227 | 4032 ft | 246 kts | 150° |
| 2026-05-04 23:07 | 30.13582 | -82.50263 | 5030 ft | 260 kts | 151° |
| 2026-05-04 23:07 | 30.11963 | -82.49266 | 6230 ft | 267 kts | 151° |
| 2026-05-04 23:07 | 30.10307 | -82.48241 | 7418 ft | 273 kts | 151° |
| 2026-05-04 23:08 | 30.08635 | -82.47202 | 8541 ft | 280 kts | 151° |
| 2026-05-04 23:08 | 30.06894 | -82.46112 | 9610 ft | 288 kts | 152° |
| 2026-05-04 23:08 | 30.05116 | -82.44998 | 10669 ft | 293 kts | 152° |
| 2026-05-04 23:08 | 30.03317 | -82.43872 | 11910 ft | 295 kts | 153° |
| 2026-05-04 23:09 | 30.01489 | -82.42727 | 13297 ft | 306 kts | 154° |
| 2026-05-04 23:09 | 29.99528 | -82.41508 | 13966 ft | 339 kts | 154° |
| 2026-05-04 23:09 | 29.97290 | -82.40123 | 13957 ft | 390 kts | 154° |
| 2026-05-04 23:09 | 29.94812 | -82.38582 | 14563 ft | 415 kts | 154° |
| 2026-05-04 23:10 | 29.92236 | -82.36972 | 15544 ft | 430 kts | 154° |
| 2026-05-04 23:10 | 29.89559 | -82.35292 | 16408 ft | 446 kts | 154° |
| 2026-05-04 23:10 | 29.86802 | -82.33562 | 16793 ft | 450 kts | 154° |
| 2026-05-04 23:10 | 29.84062 | -82.31837 | 16946 ft | 449 kts | 154° |
| 2026-05-04 23:11 | 29.81297 | -82.30101 | 16987 ft | 453 kts | 154° |
| 2026-05-04 23:11 | 29.79466 | -82.28955 | 16983 ft | 454 kts | 154° |
| 2026-05-04 23:11 | 29.76680 | -82.27217 | 16981 ft | 455 kts | 154° |
| 2026-05-04 23:11 | 29.72991 | -82.24925 | 16983 ft | 455 kts | 154° |
| 2026-05-04 23:12 | 29.70210 | -82.23193 | 16984 ft | 455 kts | 154° |
| 2026-05-04 23:12 | 29.67420 | -82.21453 | 16980 ft | 455 kts | 154° |
| 2026-05-04 23:12 | 29.64640 | -82.19720 | 16983 ft | 455 kts | 154° |
| 2026-05-04 23:12 | 29.62793 | -82.18574 | 16983 ft | 455 kts | 154° |
| 2026-05-04 23:13 | 29.60006 | -82.16849 | 16983 ft | 455 kts | 154° |
| 2026-05-04 23:13 | 29.57214 | -82.15122 | 16979 ft | 455 kts | 154° |
| 2026-05-04 23:13 | 29.54430 | -82.13401 | 16970 ft | 454 kts | 154° |
| 2026-05-04 23:13 | 29.51647 | -82.11676 | 16952 ft | 454 kts | 154° |
| 2026-05-04 23:14 | 29.48822 | -82.10075 | 16983 ft | 451 kts | 161° |
| 2026-05-04 23:14 | 29.45850 | -82.08978 | 16971 ft | 447 kts | 170° |
| 2026-05-04 23:14 | 29.42801 | -82.08339 | 16972 ft | 445 kts | 173° |
| 2026-05-04 23:14 | 29.39749 | -82.07745 | 16988 ft | 444 kts | 173° |
| 2026-05-04 23:15 | 29.36699 | -82.07146 | 16996 ft | 444 kts | 173° |
| 2026-05-04 23:15 | 29.33664 | -82.06545 | 16995 ft | 444 kts | 173° |
| 2026-05-04 23:15 | 29.30672 | -82.05626 | 16991 ft | 447 kts | 163° |
| 2026-05-04 23:15 | 29.27822 | -82.04160 | 16990 ft | 451 kts | 154° |
| 2026-05-04 23:16 | 29.25081 | -82.02424 | 16984 ft | 448 kts | 154° |
| 2026-05-04 23:16 | 29.22430 | -82.00740 | 16865 ft | 423 kts | 154° |
| 2026-05-04 23:16 | 29.19920 | -81.99144 | 16747 ft | 402 kts | 154° |
| 2026-05-04 23:16 | 29.17562 | -81.97648 | 16439 ft | 386 kts | 154° |
| 2026-05-04 23:17 | 29.15238 | -81.96180 | 16052 ft | 375 kts | 154° |
| 2026-05-04 23:17 | 29.12980 | -81.94762 | 15606 ft | 367 kts | 154° |
| 2026-05-04 23:17 | 29.10759 | -81.93375 | 15056 ft | 362 kts | 154° |
| 2026-05-04 23:17 | 29.08556 | -81.91986 | 14495 ft | 360 kts | 152° |
| 2026-05-04 23:18 | 29.06490 | -81.90393 | 13945 ft | 358 kts | 144° |
| 2026-05-04 23:18 | 29.04612 | -81.88524 | 13405 ft | 356 kts | 139° |
| 2026-05-04 23:18 | 29.02818 | -81.86591 | 12858 ft | 352 kts | 138° |
| 2026-05-04 23:18 | 29.01040 | -81.84683 | 12313 ft | 349 kts | 139° |
| 2026-05-04 23:19 | 28.99278 | -81.82802 | 12032 ft | 346 kts | 138° |
| 2026-05-04 23:19 | 28.97610 | -81.80823 | 11773 ft | 345 kts | 130° |
| 2026-05-04 23:19 | 28.96142 | -81.78663 | 11214 ft | 343 kts | 128° |
| 2026-05-04 23:19 | 28.94705 | -81.76510 | 11002 ft | 341 kts | 128° |
| 2026-05-04 23:20 | 28.93267 | -81.74359 | 10992 ft | 341 kts | 128° |
| 2026-05-04 23:20 | 28.91823 | -81.72215 | 10911 ft | 338 kts | 128° |
| 2026-05-04 23:20 | 28.90399 | -81.70109 | 10529 ft | 330 kts | 128° |
| 2026-05-04 23:20 | 28.89043 | -81.68097 | 10323 ft | 308 kts | 128° |
| 2026-05-04 23:21 | 28.87762 | -81.66196 | 9753 ft | 297 kts | 128° |
| 2026-05-04 23:21 | 28.86510 | -81.64343 | 9174 ft | 294 kts | 128° |
| 2026-05-04 23:21 | 28.85287 | -81.62533 | 9007 ft | 291 kts | 128° |
| 2026-05-04 23:21 | 28.84050 | -81.60708 | 8996 ft | 291 kts | 128° |
| 2026-05-04 23:22 | 28.82810 | -81.58878 | 9004 ft | 292 kts | 128° |
| 2026-05-04 23:22 | 28.81571 | -81.57048 | 9000 ft | 291 kts | 128° |
| 2026-05-04 23:22 | 28.80291 | -81.55260 | 9000 ft | 291 kts | 135° |
| 2026-05-04 23:22 | 28.78752 | -81.53778 | 9001 ft | 290 kts | 147° |
| 2026-05-04 23:23 | 28.76999 | -81.52651 | 9009 ft | 289 kts | 153° |
| 2026-05-04 23:23 | 28.75214 | -81.51586 | 9005 ft | 290 kts | 153° |
| 2026-05-04 23:23 | 28.73429 | -81.50519 | 9000 ft | 290 kts | 153° |
| 2026-05-04 23:23 | 28.71646 | -81.49452 | 9000 ft | 289 kts | 153° |
| 2026-05-04 23:24 | 28.69865 | -81.48383 | 9012 ft | 290 kts | 153° |
| 2026-05-04 23:24 | 28.68080 | -81.47312 | 9016 ft | 290 kts | 153° |
| 2026-05-04 23:24 | 28.66295 | -81.46242 | 9006 ft | 289 kts | 153° |
| 2026-05-04 23:24 | 28.64516 | -81.45176 | 9006 ft | 289 kts | 153° |
| 2026-05-04 23:25 | 28.62736 | -81.44112 | 8919 ft | 287 kts | 153° |
| 2026-05-04 23:25 | 28.60968 | -81.43129 | 8750 ft | 277 kts | 160° |
| 2026-05-04 23:25 | 28.59182 | -81.42645 | 8571 ft | 259 kts | 174° |
| 2026-05-04 23:25 | 28.57426 | -81.42457 | 8171 ft | 252 kts | 175° |
| 2026-05-04 23:26 | 28.55689 | -81.42436 | 7943 ft | 248 kts | 180° |
| 2026-05-04 23:26 | 28.53973 | -81.42444 | 7588 ft | 247 kts | 180° |
| 2026-05-04 23:26 | 28.52261 | -81.42444 | 7289 ft | 246 kts | 180° |
| 2026-05-04 23:26 | 28.50555 | -81.42440 | 7019 ft | 242 kts | 179° |
| 2026-05-04 23:27 | 28.48900 | -81.42435 | 6870 ft | 234 kts | 179° |
| 2026-05-04 23:27 | 28.47293 | -81.42434 | 6446 ft | 230 kts | 179° |
| 2026-05-04 23:27 | 28.45701 | -81.42435 | 5936 ft | 229 kts | 179° |
| 2026-05-04 23:27 | 28.44115 | -81.42434 | 5435 ft | 227 kts | 178° |
| 2026-05-04 23:28 | 28.42547 | -81.42433 | 4919 ft | 225 kts | 178° |
| 2026-05-04 23:28 | 28.40985 | -81.42432 | 4394 ft | 224 kts | 178° |
| 2026-05-04 23:28 | 28.39427 | -81.42433 | 3865 ft | 223 kts | 177° |
| 2026-05-04 23:28 | 28.37876 | -81.42434 | 3350 ft | 222 kts | 177° |
| 2026-05-04 23:29 | 28.36329 | -81.42433 | 3041 ft | 223 kts | 176° |
| 2026-05-04 23:29 | 28.34772 | -81.42430 | 3015 ft | 224 kts | 176° |
| 2026-05-04 23:29 | 28.33229 | -81.42426 | 3012 ft | 224 kts | 176° |
| 2026-05-04 23:29 | 28.31673 | -81.42427 | 3010 ft | 224 kts | 176° |
| 2026-05-04 23:30 | 28.30183 | -81.42059 | 3006 ft | 217 kts | 147° |
| 2026-05-04 23:30 | 28.29172 | -81.40860 | 3009 ft | 211 kts | 112° |
| 2026-05-04 23:30 | 28.28925 | -81.39266 | 2845 ft | 205 kts | 88° |
| 2026-05-04 23:30 | 28.29042 | -81.37653 | 2503 ft | 205 kts | 83° |
| 2026-05-04 23:31 | 28.29214 | -81.36087 | 2293 ft | 194 kts | 79° |
| 2026-05-04 23:31 | 28.29835 | -81.34794 | 2164 ft | 189 kts | 43° |
| 2026-05-04 23:31 | 28.30975 | -81.34092 | 2078 ft | 185 kts | 25° |
| 2026-05-04 23:31 | 28.32172 | -81.33587 | 2007 ft | 180 kts | 23° |
| 2026-05-04 23:32 | 28.33297 | -81.33144 | 1979 ft | 164 kts | 23° |
| 2026-05-04 23:32 | 28.34287 | -81.32775 | 1842 ft | 135 kts | 23° |
| 2026-05-04 23:32 | 28.35160 | -81.32620 | 1640 ft | 126 kts | 3° |
| 2026-05-04 23:32 | 28.36018 | -81.32632 | 1336 ft | 122 kts | 7° |
| 2026-05-04 23:33 | 28.36877 | -81.32627 | 1103 ft | 124 kts | 7° |
| 2026-05-04 23:33 | 28.37742 | -81.32630 | 907 ft | 125 kts | 6° |
| 2026-05-04 23:33 | 28.38605 | -81.32636 | 724 ft | 124 kts | 5° |
| 2026-05-04 23:33 | 28.39462 | -81.32643 | 562 ft | 126 kts | 7° |
| 2026-05-04 23:34 | 28.40322 | -81.32651 | 371 ft | 124 kts | 6° |
| 2026-05-04 23:34 | 28.41211 | -81.32659 | 222 ft | 128 kts | 5° |
| 2026-05-04 23:34 | 28.42090 | -81.32667 | 114 ft | 119 kts | 4° |
| 2026-05-04 23:34 | 28.42792 | -81.32673 | 106 ft | 77 kts | 359° |
| 2026-05-04 23:35 | 28.43015 | -81.32638 | 107 ft | 18 kts | 45° |
| 2026-05-04 23:35 | 28.43057 | -81.32494 | 106 ft | 22 kts | 89° |
| 2026-05-04 23:35 | 28.43061 | -81.32319 | 104 ft | 24 kts | 89° |
| 2026-05-04 23:35 | 28.43062 | -81.32117 | 101 ft | 18 kts | 88° |
| 2026-05-04 23:36 | 28.43061 | -81.31968 | 103 ft | 14 kts | 90° |
| 2026-05-04 23:36 | 28.43019 | -81.31871 | 103 ft | 17 kts | 122° |
| 2026-05-04 23:36 | 28.42955 | -81.31757 | 102 ft | 13 kts | 124° |
| 2026-05-04 23:36 | 28.42868 | -81.31692 | 102 ft | 18 kts | 164° |
| 2026-05-04 23:37 | 28.42745 | -81.31663 | 102 ft | 16 kts | 167° |
| 2026-05-04 23:37 | 28.42669 | -81.31643 | 102 ft | 8 kts | 166° |
| 2026-05-04 23:37 | 28.42604 | -81.31625 | 102 ft | 11 kts | 166° |
| 2026-05-04 23:37 | 28.42540 | -81.31590 | 102 ft | 9 kts | 128° |
| 2026-05-04 23:38 | 28.42538 | -81.31566 | 102 ft | 3 kts | 70° |
| 2026-05-04 23:38 | 28.42551 | -81.31559 | 102 ft | 3 kts | 30° |
| 2026-05-04 23:38 | 28.42569 | -81.31545 | 102 ft | 1 kts | 33° |
| 2026-05-04 23:38 | 28.42569 | -81.31544 | 102 ft | 0 kts | 33° |